createdAt,value
2018-11-13T00:00:05.782Z,1005.05
2018-11-13T00:01:05.775Z,1005.02
2018-11-13T00:02:05.749Z,1005.00
2018-11-13T00:03:05.729Z,1005.03
2018-11-13T00:04:05.736Z,1005.01
2018-11-13T00:05:05.716Z,1005.09
2018-11-13T00:06:05.839Z,1005.07
2018-11-13T00:07:05.673Z,1005.09
2018-11-13T00:08:05.672Z,1005.11
2018-11-13T00:09:05.659Z,1005.13
2018-11-13T00:10:05.631Z,1005.15
2018-11-13T00:11:05.620Z,1005.23
2018-11-13T00:12:05.639Z,1005.24
2018-11-13T00:13:05.614Z,1005.26
2018-11-13T00:14:05.584Z,1005.27
2018-11-13T00:15:05.568Z,1005.35
2018-11-13T00:16:05.548Z,1005.38
2018-11-13T00:17:05.523Z,1005.39
2018-11-13T00:18:05.555Z,1005.39
2018-11-13T00:19:05.504Z,1005.42
2018-11-13T00:20:05.479Z,1005.43
2018-11-13T00:21:05.478Z,1005.38
2018-11-13T00:22:05.464Z,1005.39
2018-11-13T00:23:05.480Z,1005.35
2018-11-13T00:24:05.500Z,1005.28
2018-11-13T00:25:05.416Z,1005.29
2018-11-13T00:26:05.390Z,1005.27
2018-11-13T00:27:05.391Z,1005.26
2018-11-13T00:28:05.366Z,1005.27
2018-11-13T00:29:05.385Z,1005.25
2018-11-13T00:30:05.337Z,1005.26
2018-11-13T00:31:05.324Z,1005.23
2018-11-13T00:32:05.304Z,1005.24
2018-11-13T00:33:05.309Z,1005.22
2018-11-13T00:34:05.267Z,1005.23
2018-11-13T00:35:05.303Z,1005.25
2018-11-13T00:36:05.239Z,1005.19
2018-11-13T00:37:05.239Z,1005.21
2018-11-13T00:38:05.238Z,1005.19
2018-11-13T00:39:05.200Z,1005.18
2018-11-13T00:40:05.189Z,1005.22
2018-11-13T00:41:05.206Z,1005.21
2018-11-13T00:42:05.278Z,1005.18
2018-11-13T00:43:05.152Z,1005.18
2018-11-13T00:44:05.124Z,1005.18
2018-11-13T00:45:05.113Z,1005.15
2018-11-13T00:46:05.232Z,1005.20
2018-11-13T00:47:05.076Z,1005.24
2018-11-13T00:48:05.054Z,1005.30
2018-11-13T00:49:05.050Z,1005.27
2018-11-13T00:50:05.023Z,1005.29
2018-11-13T00:51:05.021Z,1005.33
2018-11-13T00:52:05.075Z,1005.37
2018-11-13T00:53:04.982Z,1005.49
2018-11-13T00:54:04.972Z,1005.48
2018-11-13T00:55:05.288Z,1005.51
2018-11-13T00:56:04.943Z,1005.58
2018-11-13T00:57:04.916Z,1005.62
2018-11-13T00:58:04.920Z,1005.72
2018-11-13T00:59:04.903Z,1005.72
2018-11-13T01:00:04.889Z,1005.70
2018-11-13T01:01:04.853Z,1005.66
2018-11-13T01:02:05.034Z,1005.66
2018-11-13T01:03:04.833Z,1005.60
2018-11-13T01:04:04.823Z,1005.59
2018-11-13T01:05:04.844Z,1005.55
2018-11-13T01:06:04.795Z,1005.52
2018-11-13T01:07:04.780Z,1005.53
2018-11-13T01:08:04.760Z,1005.61
2018-11-13T01:09:04.733Z,1005.60
2018-11-13T01:10:04.727Z,1005.59
2018-11-13T01:11:04.716Z,1005.57
2018-11-13T01:12:04.703Z,1005.54
2018-11-13T01:13:04.685Z,1005.49
2018-11-13T01:14:04.666Z,1005.50
2018-11-13T01:15:04.686Z,1005.51
2018-11-13T01:16:04.640Z,1005.50
2018-11-13T01:17:04.615Z,1005.44
2018-11-13T01:18:04.606Z,1005.43
2018-11-13T01:19:04.596Z,1005.39
2018-11-13T01:20:04.583Z,1005.40
2018-11-13T01:21:04.557Z,1005.36
2018-11-13T01:22:04.620Z,1005.37
2018-11-13T01:23:04.528Z,1005.37
2018-11-13T01:24:04.521Z,1005.38
2018-11-13T01:25:04.497Z,1005.41
2018-11-13T01:26:04.505Z,1005.34
2018-11-13T01:27:04.458Z,1005.28
2018-11-13T01:28:04.463Z,1005.23
2018-11-13T01:29:04.434Z,1005.21
2018-11-13T01:30:04.438Z,1005.22
2018-11-13T01:31:04.411Z,1005.19
2018-11-13T01:32:04.397Z,1005.22
2018-11-13T01:33:04.378Z,1005.22
2018-11-13T01:34:04.368Z,1005.23
2018-11-13T01:35:04.342Z,1005.22
2018-11-13T01:36:04.335Z,1005.20
2018-11-13T01:37:04.312Z,1005.21
2018-11-13T01:38:04.338Z,1005.18
2018-11-13T01:39:04.290Z,1005.17
2018-11-13T01:40:04.284Z,1005.16
2018-11-13T01:41:04.260Z,1005.16
2018-11-13T01:42:04.240Z,1005.15
2018-11-13T01:43:04.358Z,1005.18
2018-11-13T01:44:04.211Z,1005.20
2018-11-13T01:45:04.205Z,1005.20
2018-11-13T01:46:04.190Z,1005.24
2018-11-13T01:47:04.167Z,1005.25
2018-11-13T01:48:04.247Z,1005.23
2018-11-13T01:49:04.174Z,1005.21
2018-11-13T01:50:04.127Z,1005.21
2018-11-13T01:51:04.105Z,1005.23
2018-11-13T01:52:04.094Z,1005.22
2018-11-13T01:53:04.120Z,1005.21
2018-11-13T01:54:04.118Z,1005.20
2018-11-13T01:55:04.056Z,1005.25
2018-11-13T01:56:04.027Z,1005.28
2018-11-13T01:57:04.057Z,1005.34
2018-11-13T01:58:04.029Z,1005.34
2018-11-13T01:59:04.018Z,1005.35
2018-11-13T02:00:03.961Z,1005.35
2018-11-13T02:01:03.957Z,1005.33
2018-11-13T02:02:03.996Z,1005.34
2018-11-13T02:03:03.934Z,1005.35
2018-11-13T02:04:03.938Z,1005.29
2018-11-13T02:05:03.913Z,1005.29
2018-11-13T02:06:03.871Z,1005.26
2018-11-13T02:07:03.867Z,1005.27
2018-11-13T02:08:03.843Z,1005.27
2018-11-13T02:09:03.830Z,1005.30
2018-11-13T02:10:03.818Z,1005.32
2018-11-13T02:11:03.839Z,1005.31
2018-11-13T02:12:03.786Z,1005.32
2018-11-13T02:13:03.768Z,1005.27
2018-11-13T02:14:03.761Z,1005.22
2018-11-13T02:15:03.750Z,1005.16
2018-11-13T02:16:03.749Z,1005.17
2018-11-13T02:17:03.707Z,1005.16
2018-11-13T02:18:03.700Z,1005.12
2018-11-13T02:19:03.673Z,1005.17
2018-11-13T02:20:03.672Z,1005.16
2018-11-13T02:21:03.683Z,1005.20
2018-11-13T02:22:03.700Z,1005.19
2018-11-13T02:23:03.629Z,1005.22
2018-11-13T02:24:03.599Z,1005.21
2018-11-13T02:25:03.582Z,1005.24
2018-11-13T02:26:03.575Z,1005.23
2018-11-13T02:27:03.567Z,1005.20
2018-11-13T02:28:03.575Z,1005.18
2018-11-13T02:29:03.535Z,1005.22
2018-11-13T02:30:03.527Z,1005.23
2018-11-13T02:31:03.502Z,1005.24
2018-11-13T02:32:03.610Z,1005.24
2018-11-13T02:33:03.492Z,1005.28
2018-11-13T02:34:03.468Z,1005.27
2018-11-13T02:35:03.444Z,1005.28
2018-11-13T02:36:03.420Z,1005.30
2018-11-13T02:37:03.402Z,1005.29
2018-11-13T02:38:03.419Z,1005.29
2018-11-13T02:39:03.392Z,1005.22
2018-11-13T02:40:03.369Z,1005.26
2018-11-13T02:41:03.346Z,1005.19
2018-11-13T02:42:03.326Z,1005.18
2018-11-13T02:43:03.401Z,1005.13
2018-11-13T02:44:03.300Z,1005.16
2018-11-13T02:45:03.299Z,1005.18
2018-11-13T02:46:03.278Z,1005.18
2018-11-13T02:47:03.253Z,1005.20
2018-11-13T02:48:03.253Z,1005.18
2018-11-13T02:49:03.258Z,1005.20
2018-11-13T02:50:03.204Z,1005.17
2018-11-13T02:51:03.193Z,1005.20
2018-11-13T02:52:03.180Z,1005.23
2018-11-13T02:53:03.183Z,1005.30
2018-11-13T02:54:03.194Z,1005.34
2018-11-13T02:55:03.137Z,1005.33
2018-11-13T02:56:03.128Z,1005.28
2018-11-13T02:57:03.101Z,1005.32
2018-11-13T02:58:03.139Z,1005.28
2018-11-13T02:59:03.075Z,1005.30
2018-11-13T03:00:03.054Z,1005.28
2018-11-13T03:01:03.053Z,1005.22
2018-11-13T03:02:03.035Z,1005.22
2018-11-13T03:03:03.007Z,1005.21
2018-11-13T03:04:03.048Z,1005.23
2018-11-13T03:05:02.987Z,1005.26
2018-11-13T03:06:02.975Z,1005.28
2018-11-13T03:07:02.964Z,1005.28
2018-11-13T03:08:02.940Z,1005.27
2018-11-13T03:09:02.926Z,1005.25
2018-11-13T03:10:02.905Z,1005.26
2018-11-13T03:11:02.888Z,1005.26
2018-11-13T03:12:02.876Z,1005.24
2018-11-13T03:13:02.857Z,1005.28
2018-11-13T03:14:02.852Z,1005.28
2018-11-13T03:15:02.896Z,1005.24
2018-11-13T03:16:02.825Z,1005.23
2018-11-13T03:17:02.796Z,1005.22
2018-11-13T03:18:02.798Z,1005.23
2018-11-13T03:19:02.773Z,1005.23
2018-11-13T03:20:02.762Z,1005.22
2018-11-13T03:21:02.780Z,1005.27
2018-11-13T03:22:02.736Z,1005.30
2018-11-13T03:23:02.724Z,1005.33
2018-11-13T03:24:02.687Z,1005.37
2018-11-13T03:25:02.682Z,1005.39
2018-11-13T03:26:02.686Z,1005.36
2018-11-13T03:27:02.648Z,1005.36
2018-11-13T03:28:02.629Z,1005.34
2018-11-13T03:29:02.621Z,1005.33
2018-11-13T03:30:02.612Z,1005.32
2018-11-13T03:31:02.705Z,1005.28
2018-11-13T03:32:02.822Z,1005.31
2018-11-13T03:33:02.568Z,1005.29
2018-11-13T03:34:02.543Z,1005.30
2018-11-13T03:35:02.539Z,1005.29
2018-11-13T03:36:02.557Z,1005.27
2018-11-13T03:37:02.497Z,1005.29
2018-11-13T03:38:02.486Z,1005.29
2018-11-13T03:39:02.467Z,1005.33
2018-11-13T03:40:02.460Z,1005.36
2018-11-13T03:41:02.480Z,1005.39
2018-11-13T03:42:02.434Z,1005.29
2018-11-13T03:43:02.405Z,1005.25
2018-11-13T03:44:02.400Z,1005.18
2018-11-13T03:45:02.372Z,1005.12
2018-11-13T03:46:02.387Z,1005.13
2018-11-13T03:47:02.341Z,1005.13
2018-11-13T03:48:02.334Z,1005.16
2018-11-13T03:49:02.323Z,1005.22
2018-11-13T03:50:02.377Z,1005.23
2018-11-13T03:51:02.296Z,1005.20
2018-11-13T03:52:02.268Z,1005.16
2018-11-13T03:53:02.247Z,1005.15
2018-11-13T03:54:02.242Z,1005.24
2018-11-13T03:55:02.216Z,1005.20
2018-11-13T03:56:02.241Z,1005.28
2018-11-13T03:57:02.194Z,1005.33
2018-11-13T03:58:02.178Z,1005.46
2018-11-13T03:59:02.212Z,1005.48
2018-11-13T04:00:02.138Z,1005.48
2018-11-13T04:01:02.135Z,1005.48
2018-11-13T04:02:02.151Z,1005.47
2018-11-13T04:03:02.095Z,1005.41
2018-11-13T04:04:02.091Z,1005.42
2018-11-13T04:05:02.090Z,1005.39
2018-11-13T04:06:02.096Z,1005.42
2018-11-13T04:07:02.043Z,1005.43
2018-11-13T04:08:02.019Z,1005.46
2018-11-13T04:09:02.014Z,1005.49
2018-11-13T04:10:01.982Z,1005.58
2018-11-13T04:11:01.979Z,1005.63
2018-11-13T04:12:01.959Z,1005.67
2018-11-13T04:13:01.936Z,1005.68
2018-11-13T04:14:01.921Z,1005.63
2018-11-13T04:15:01.922Z,1005.68
2018-11-13T04:16:01.940Z,1005.64
2018-11-13T04:17:01.890Z,1005.64
2018-11-13T04:18:01.862Z,1005.59
2018-11-13T04:19:01.852Z,1005.55
2018-11-13T04:20:01.838Z,1005.56
2018-11-13T04:21:01.892Z,1005.59
2018-11-13T04:22:01.804Z,1005.65
2018-11-13T04:23:01.793Z,1005.74
2018-11-13T04:24:01.770Z,1005.80
2018-11-13T04:25:01.747Z,1005.80
2018-11-13T04:26:01.737Z,1005.76
2018-11-13T04:27:01.731Z,1005.78
2018-11-13T04:28:01.734Z,1005.76
2018-11-13T04:29:01.696Z,1005.73
2018-11-13T04:30:01.675Z,1005.68
2018-11-13T04:31:01.661Z,1005.64
2018-11-13T04:32:01.722Z,1005.68
2018-11-13T04:33:01.661Z,1005.69
2018-11-13T04:34:01.618Z,1005.77
2018-11-13T04:35:01.621Z,1005.83
2018-11-13T04:36:01.586Z,1005.85
2018-11-13T04:37:01.711Z,1005.89
2018-11-13T04:38:01.547Z,1005.92
2018-11-13T04:39:01.545Z,1005.85
2018-11-13T04:40:01.514Z,1005.82
2018-11-13T04:41:01.502Z,1005.82
2018-11-13T04:42:01.481Z,1005.83
2018-11-13T04:43:01.516Z,1005.82
2018-11-13T04:44:01.467Z,1005.86
2018-11-13T04:45:01.453Z,1005.80
2018-11-13T04:46:01.419Z,1005.80
2018-11-13T04:47:01.419Z,1005.75
2018-11-13T04:48:01.477Z,1005.76
2018-11-13T04:49:01.380Z,1005.71
2018-11-13T04:50:01.355Z,1005.73
2018-11-13T04:51:01.341Z,1005.67
2018-11-13T04:52:01.335Z,1005.64
2018-11-13T04:53:01.315Z,1005.61
2018-11-13T04:54:01.299Z,1005.62
2018-11-13T04:55:01.283Z,1005.64
2018-11-13T04:56:01.274Z,1005.69
2018-11-13T04:57:01.254Z,1005.71
2018-11-13T04:58:01.264Z,1005.75
2018-11-13T04:59:01.273Z,1005.74
2018-11-13T05:00:01.211Z,1005.76
2018-11-13T05:01:01.183Z,1005.81
2018-11-13T05:02:01.182Z,1005.79
2018-11-13T05:03:01.235Z,1005.87
2018-11-13T05:04:01.147Z,1005.91
2018-11-13T05:05:01.164Z,1005.84
2018-11-13T05:06:01.121Z,1005.78
2018-11-13T05:07:01.107Z,1005.80
2018-11-13T05:08:01.087Z,1005.84
2018-11-13T05:09:01.063Z,1005.90
2018-11-13T05:10:01.241Z,1005.86
2018-11-13T05:11:01.041Z,1005.80
2018-11-13T05:12:01.336Z,1005.78
2018-11-13T05:13:00.999Z,1005.70
2018-11-13T05:14:00.979Z,1005.66
2018-11-13T05:15:00.982Z,1005.66
2018-11-13T05:16:00.960Z,1005.64
2018-11-13T05:17:00.936Z,1005.62
2018-11-13T05:18:00.931Z,1005.53
2018-11-13T05:19:00.914Z,1005.57
2018-11-13T05:20:00.890Z,1005.56
2018-11-13T05:21:00.884Z,1005.56
2018-11-13T05:22:00.866Z,1005.59
2018-11-13T05:23:00.882Z,1005.66
2018-11-13T05:24:00.826Z,1005.66
2018-11-13T05:25:00.812Z,1005.65
2018-11-13T05:26:00.815Z,1005.60
2018-11-13T05:27:00.790Z,1005.61
2018-11-13T05:28:00.778Z,1005.57
2018-11-13T05:29:00.751Z,1005.57
2018-11-13T05:30:00.744Z,1005.54
2018-11-13T05:31:00.856Z,1005.60
2018-11-13T05:32:00.703Z,1005.62
2018-11-13T05:33:00.688Z,1005.68
2018-11-13T05:34:00.671Z,1005.70
2018-11-13T05:35:00.660Z,1005.70
2018-11-13T05:36:00.640Z,1005.69
2018-11-13T05:37:00.695Z,1005.69
2018-11-13T05:38:00.615Z,1005.64
2018-11-13T05:39:00.601Z,1005.72
2018-11-13T05:40:00.592Z,1005.67
2018-11-13T05:41:00.571Z,1005.76
2018-11-13T05:42:00.596Z,1005.78
2018-11-13T05:43:00.558Z,1005.83
2018-11-13T05:44:00.516Z,1005.84
2018-11-13T05:45:00.511Z,1005.84
2018-11-13T05:46:00.484Z,1005.88
2018-11-13T05:47:00.516Z,1005.92
2018-11-13T05:48:00.497Z,1005.91
2018-11-13T05:49:00.444Z,1005.90
2018-11-13T05:50:00.423Z,1005.89
2018-11-13T05:51:00.406Z,1005.94
2018-11-13T05:52:00.398Z,1005.97
2018-11-13T05:53:00.393Z,1005.97
2018-11-13T05:54:00.371Z,1005.97
2018-11-13T05:55:00.356Z,1005.97
2018-11-13T05:56:00.336Z,1005.98
2018-11-13T05:57:00.321Z,1005.99
2018-11-13T05:58:00.302Z,1006.08
2018-11-13T05:59:00.283Z,1006.11
2018-11-13T06:00:00.340Z,1006.04
2018-11-13T06:01:00.262Z,1006.09
2018-11-13T06:02:00.236Z,1006.15
2018-11-13T06:03:00.248Z,1006.19
2018-11-13T06:04:00.211Z,1006.24
2018-11-13T06:05:00.198Z,1006.22
2018-11-13T06:06:00.168Z,1006.12
2018-11-13T06:07:00.159Z,1006.11
2018-11-13T06:08:00.251Z,1006.08
2018-11-13T06:09:00.128Z,1006.07
2018-11-13T06:10:00.112Z,1006.07
2018-11-13T06:11:00.103Z,1006.08
2018-11-13T06:12:00.073Z,1006.07
2018-11-13T06:13:00.074Z,1006.07
2018-11-13T06:14:00.145Z,1006.15
2018-11-13T06:15:00.035Z,1006.17
2018-11-13T06:16:00.025Z,1006.24
2018-11-13T06:17:00.041Z,1006.24
2018-11-13T06:18:00.005Z,1006.26
2018-11-13T06:18:59.977Z,1006.19
2018-11-13T06:19:59.957Z,1006.18
2018-11-13T06:20:59.934Z,1006.22
2018-11-13T06:21:59.920Z,1006.26
2018-11-13T06:22:59.924Z,1006.35
2018-11-13T06:23:59.895Z,1006.38
2018-11-13T06:24:59.869Z,1006.41
2018-11-13T06:25:59.883Z,1006.35
2018-11-13T06:26:59.854Z,1006.28
2018-11-13T06:27:59.835Z,1006.32
2018-11-13T06:28:59.822Z,1006.28
2018-11-13T06:29:59.792Z,1006.30
2018-11-13T06:30:59.782Z,1006.31
2018-11-13T06:31:59.765Z,1006.31
2018-11-13T06:32:59.744Z,1006.34
2018-11-13T06:33:59.733Z,1006.29
2018-11-13T06:34:59.716Z,1006.29
2018-11-13T06:35:59.736Z,1006.31
2018-11-13T06:36:59.677Z,1006.28
2018-11-13T06:37:59.674Z,1006.36
2018-11-13T06:38:59.752Z,1006.39
2018-11-13T06:39:59.638Z,1006.43
2018-11-13T06:40:59.691Z,1006.31
2018-11-13T06:41:59.804Z,1006.31
2018-11-13T06:42:59.596Z,1006.41
2018-11-13T06:43:59.573Z,1006.43
2018-11-13T06:44:59.567Z,1006.39
2018-11-13T06:45:59.547Z,1006.44
2018-11-13T06:46:59.558Z,1006.40
2018-11-13T06:47:59.533Z,1006.38
2018-11-13T06:48:59.564Z,1006.43
2018-11-13T06:49:59.484Z,1006.48
2018-11-13T06:50:59.497Z,1006.44
2018-11-13T06:51:59.444Z,1006.49
2018-11-13T06:52:59.441Z,1006.58
2018-11-13T06:53:59.427Z,1006.54
2018-11-13T06:54:59.413Z,1006.51
2018-11-13T06:55:59.505Z,1006.52
2018-11-13T06:56:59.365Z,1006.58
2018-11-13T06:57:59.376Z,1006.53
2018-11-13T06:58:59.349Z,1006.52
2018-11-13T06:59:59.331Z,1006.53
2018-11-13T07:00:59.312Z,1006.55
2018-11-13T07:01:59.324Z,1006.57
2018-11-13T07:02:59.278Z,1006.52
2018-11-13T07:03:59.266Z,1006.55
2018-11-13T07:04:59.267Z,1006.52
2018-11-13T07:05:59.239Z,1006.53
2018-11-13T07:06:59.344Z,1006.48
2018-11-13T07:07:59.189Z,1006.50
2018-11-13T07:08:59.188Z,1006.47
2018-11-13T07:09:59.172Z,1006.45
2018-11-13T07:10:59.144Z,1006.46
2018-11-13T07:11:59.405Z,1006.47
2018-11-13T07:12:59.174Z,1006.48
2018-11-13T07:13:59.111Z,1006.50
2018-11-13T07:14:59.088Z,1006.51
2018-11-13T07:15:59.064Z,1006.53
2018-11-13T07:16:59.064Z,1006.53
2018-11-13T07:17:59.046Z,1006.52
2018-11-13T07:18:59.030Z,1006.51
2018-11-13T07:19:59.008Z,1006.49
2018-11-13T07:20:58.989Z,1006.50
2018-11-13T07:21:58.980Z,1006.52
2018-11-13T07:22:58.949Z,1006.52
2018-11-13T07:23:58.980Z,1006.53
2018-11-13T07:24:58.919Z,1006.55
2018-11-13T07:25:58.913Z,1006.53
2018-11-13T07:26:58.907Z,1006.58
2018-11-13T07:27:58.881Z,1006.58
2018-11-13T07:28:58.890Z,1006.60
2018-11-13T07:29:58.846Z,1006.64
2018-11-13T07:30:58.835Z,1006.65
2018-11-13T07:31:58.811Z,1006.69
2018-11-13T07:32:58.795Z,1006.64
2018-11-13T07:33:58.821Z,1006.61
2018-11-13T07:34:58.772Z,1006.63
2018-11-13T07:35:58.754Z,1006.61
2018-11-13T07:36:58.733Z,1006.56
2018-11-13T07:37:58.726Z,1006.62
2018-11-13T07:38:58.749Z,1006.60
2018-11-13T07:39:58.682Z,1006.61
2018-11-13T07:40:58.684Z,1006.63
2018-11-13T07:41:58.770Z,1006.68
2018-11-13T07:42:58.644Z,1006.76
2018-11-13T07:43:58.623Z,1006.75
2018-11-13T07:44:58.607Z,1006.76
2018-11-13T07:45:58.599Z,1006.77
2018-11-13T07:46:58.625Z,1006.77
2018-11-13T07:47:58.596Z,1006.77
2018-11-13T07:48:58.543Z,1006.75
2018-11-13T07:49:58.526Z,1006.75
2018-11-13T07:50:58.519Z,1006.77
2018-11-13T07:51:58.502Z,1006.77
2018-11-13T07:52:58.519Z,1006.80
2018-11-13T07:53:58.516Z,1006.79
2018-11-13T07:54:58.474Z,1006.85
2018-11-13T07:55:58.429Z,1006.86
2018-11-13T07:56:58.418Z,1006.90
2018-11-13T07:57:58.401Z,1006.94
2018-11-13T07:58:58.386Z,1006.99
2018-11-13T07:59:58.456Z,1007.02
2018-11-13T08:00:58.346Z,1007.02
2018-11-13T08:01:58.345Z,1007.02
2018-11-13T08:02:58.320Z,1007.02
2018-11-13T08:03:58.314Z,1007.01
2018-11-13T08:04:58.279Z,1007.04
2018-11-13T08:05:58.297Z,1007.08
2018-11-13T08:06:58.261Z,1007.09
2018-11-13T08:07:58.248Z,1007.10
2018-11-13T08:08:58.222Z,1007.09
2018-11-13T08:09:58.212Z,1007.07
2018-11-13T08:10:58.262Z,1007.08
2018-11-13T08:11:58.311Z,1007.06
2018-11-13T08:12:58.196Z,1007.11
2018-11-13T08:13:58.138Z,1007.14
2018-11-13T08:14:58.137Z,1007.11
2018-11-13T08:15:58.105Z,1007.14
2018-11-13T08:16:58.121Z,1007.15
2018-11-13T08:17:58.076Z,1007.13
2018-11-13T08:18:58.109Z,1007.13
2018-11-13T08:19:58.054Z,1007.14
2018-11-13T08:20:58.199Z,1007.11
2018-11-13T08:21:58.052Z,1007.07
2018-11-13T08:22:58.009Z,1007.09
2018-11-13T08:23:57.985Z,1007.06
2018-11-13T08:24:57.980Z,1007.11
2018-11-13T08:25:57.963Z,1007.06
2018-11-13T08:26:58.073Z,1007.04
2018-11-13T08:27:57.946Z,1007.07
2018-11-13T08:28:58.027Z,1007.09
2018-11-13T08:29:57.893Z,1007.09
2018-11-13T08:30:57.884Z,1007.10
2018-11-13T08:31:57.868Z,1007.07
2018-11-13T08:32:57.855Z,1007.09
2018-11-13T08:33:57.839Z,1007.05
2018-11-13T08:34:57.886Z,1006.98
2018-11-13T08:35:57.947Z,1006.99
2018-11-13T08:36:57.785Z,1007.03
2018-11-13T08:37:57.772Z,1007.06
2018-11-13T08:38:57.766Z,1007.07
2018-11-13T08:39:57.742Z,1007.09
2018-11-13T08:40:57.725Z,1007.03
2018-11-13T08:41:57.736Z,1007.00
2018-11-13T08:42:57.692Z,1006.99
2018-11-13T08:43:57.680Z,1006.99
2018-11-13T08:44:57.654Z,1007.01
2018-11-13T08:45:57.667Z,1007.03
2018-11-13T08:46:57.630Z,1007.00
2018-11-13T08:47:57.619Z,1007.03
2018-11-13T08:48:57.592Z,1007.01
2018-11-13T08:49:57.577Z,1007.02
2018-11-13T08:50:57.608Z,1007.11
2018-11-13T08:51:57.547Z,1007.07
2018-11-13T08:52:57.617Z,1007.09
2018-11-13T08:53:57.514Z,1007.12
2018-11-13T08:54:57.494Z,1007.13
2018-11-13T08:55:57.484Z,1007.13
2018-11-13T08:56:57.468Z,1007.16
2018-11-13T08:57:57.465Z,1007.12
2018-11-13T08:58:57.583Z,1007.06
2018-11-13T08:59:57.420Z,1007.09
2018-11-13T09:00:57.405Z,1007.12
2018-11-13T09:01:57.405Z,1007.12
2018-11-13T09:02:57.393Z,1007.12
2018-11-13T09:03:57.508Z,1007.10
2018-11-13T09:04:57.365Z,1007.13
2018-11-13T09:05:57.327Z,1007.08
2018-11-13T09:06:57.315Z,1007.13
2018-11-13T09:07:57.310Z,1007.23
2018-11-13T09:08:57.293Z,1007.19
2018-11-13T09:09:57.319Z,1007.22
2018-11-13T09:10:57.295Z,1007.23
2018-11-13T09:11:57.372Z,1007.21
2018-11-13T09:12:57.234Z,1007.24
2018-11-13T09:13:57.373Z,1007.23
2018-11-13T09:14:57.211Z,1007.21
2018-11-13T09:15:57.180Z,1007.18
2018-11-13T09:16:57.168Z,1007.29
2018-11-13T09:17:57.224Z,1007.32
2018-11-13T09:18:57.245Z,1007.33
2018-11-13T09:19:57.147Z,1007.36
2018-11-13T09:20:57.104Z,1007.38
2018-11-13T09:21:57.134Z,1007.30
2018-11-13T09:22:57.079Z,1007.34
2018-11-13T09:23:57.071Z,1007.42
2018-11-13T09:24:57.074Z,1007.37
2018-11-13T09:25:57.030Z,1007.46
2018-11-13T09:26:57.024Z,1007.45
2018-11-13T09:27:56.990Z,1007.44
2018-11-13T09:28:56.981Z,1007.47
2018-11-13T09:29:57.101Z,1007.50
2018-11-13T09:30:57.273Z,1007.51
2018-11-13T09:31:56.999Z,1007.65
2018-11-13T09:32:56.929Z,1007.52
2018-11-13T09:33:56.918Z,1007.55
2018-11-13T09:34:56.938Z,1007.61
2018-11-13T09:35:56.882Z,1007.46
2018-11-13T09:36:56.874Z,1007.57
2018-11-13T09:37:56.851Z,1007.59
2018-11-13T09:38:56.849Z,1007.72
2018-11-13T09:39:56.825Z,1007.59
2018-11-13T09:40:56.812Z,1007.71
2018-11-13T09:41:56.814Z,1007.64
2018-11-13T09:42:56.804Z,1007.72
2018-11-13T09:43:56.779Z,1007.68
2018-11-13T09:44:56.828Z,1007.62
2018-11-13T09:45:56.839Z,1007.64
2018-11-13T09:46:56.702Z,1007.69
2018-11-13T09:47:56.696Z,1007.69
2018-11-13T09:48:56.683Z,1007.81
2018-11-13T09:49:56.656Z,1007.74
2018-11-13T09:50:56.639Z,1007.70
2018-11-13T09:51:56.623Z,1007.75
2018-11-13T09:52:56.642Z,1007.71
2018-11-13T09:53:56.602Z,1007.72
2018-11-13T09:54:56.589Z,1007.95
2018-11-13T09:55:56.569Z,1007.79
2018-11-13T09:56:56.560Z,1007.78
2018-11-13T09:57:56.624Z,1007.78
2018-11-13T09:58:56.556Z,1007.92
2018-11-13T09:59:56.567Z,1007.84
2018-11-13T10:00:56.672Z,1007.82
2018-11-13T10:01:57.005Z,1007.86
2018-11-13T10:02:57.007Z,1008.03
2018-11-13T10:03:57.228Z,1007.96
2018-11-13T10:04:57.219Z,1008.00
2018-11-13T10:05:56.440Z,1008.00
2018-11-13T10:06:56.449Z,1008.02
2018-11-13T10:07:56.387Z,1008.00
2018-11-13T10:08:56.399Z,1008.02
2018-11-13T10:09:56.567Z,1008.02
2018-11-13T10:10:56.338Z,1008.10
2018-11-13T10:11:56.316Z,1008.05
2018-11-13T10:12:56.442Z,1008.03
2018-11-13T10:13:56.282Z,1007.94
2018-11-13T10:14:56.279Z,1008.05
2018-11-13T10:15:56.263Z,1008.10
2018-11-13T10:16:56.232Z,1008.09
2018-11-13T10:17:56.379Z,1008.06
2018-11-13T10:18:56.239Z,1008.10
2018-11-13T10:19:56.189Z,1008.10
2018-11-13T10:20:56.180Z,1008.09
2018-11-13T10:21:56.169Z,1008.08
2018-11-13T10:22:56.149Z,1008.12
2018-11-13T10:23:56.138Z,1008.16
2018-11-13T10:24:56.124Z,1008.21
2018-11-13T10:25:56.152Z,1007.99
2018-11-13T10:26:56.151Z,1008.13
2018-11-13T10:27:56.062Z,1008.05
2018-11-13T10:28:56.050Z,1008.11
2018-11-13T10:29:56.055Z,1008.10
2018-11-13T10:30:56.026Z,1008.31
2018-11-13T10:31:56.029Z,1008.06
2018-11-13T10:32:55.982Z,1008.14
2018-11-13T10:33:55.968Z,1008.05
2018-11-13T10:34:56.095Z,1008.06
2018-11-13T10:35:55.956Z,1007.97
2018-11-13T10:36:55.920Z,1008.07
2018-11-13T10:37:55.923Z,1007.98
2018-11-13T10:38:55.904Z,1007.97
2018-11-13T10:39:55.914Z,1007.99
2018-11-13T10:40:55.986Z,1007.98
2018-11-13T10:41:55.860Z,1008.02
2018-11-13T10:42:55.846Z,1007.98
2018-11-13T10:43:55.823Z,1007.97
2018-11-13T10:44:55.810Z,1008.01
2018-11-13T10:45:55.812Z,1007.92
2018-11-13T10:46:55.786Z,1007.99
2018-11-13T10:47:55.756Z,1007.97
2018-11-13T10:48:55.787Z,1007.89
2018-11-13T10:49:55.730Z,1007.90
2018-11-13T10:50:55.772Z,1007.84
2018-11-13T10:51:55.693Z,1007.82
2018-11-13T10:52:55.682Z,1007.89
2018-11-13T10:53:55.680Z,1007.88
2018-11-13T10:54:55.655Z,1007.83
2018-11-13T10:55:55.646Z,1007.90
2018-11-13T10:56:55.652Z,1007.97
2018-11-13T10:57:55.605Z,1007.99
2018-11-13T10:58:55.587Z,1007.98
2018-11-13T10:59:55.564Z,1008.03
2018-11-13T11:00:55.688Z,1007.94
2018-11-13T11:01:55.536Z,1007.90
2018-11-13T11:02:55.665Z,1007.94
2018-11-13T11:03:55.516Z,1007.96
2018-11-13T11:04:55.502Z,1007.96
2018-11-13T11:05:55.487Z,1007.93
2018-11-13T11:06:55.571Z,1007.95
2018-11-13T11:07:55.459Z,1008.00
2018-11-13T11:08:55.443Z,1007.90
2018-11-13T11:09:55.423Z,1008.03
2018-11-13T11:10:55.434Z,1007.92
2018-11-13T11:11:55.392Z,1008.04
2018-11-13T11:12:55.412Z,1007.92
2018-11-13T11:13:55.580Z,1008.03
2018-11-13T11:14:55.358Z,1007.97
2018-11-13T11:15:55.340Z,1008.01
2018-11-13T11:16:55.328Z,1007.90
2018-11-13T11:17:55.338Z,1007.93
2018-11-13T11:18:55.536Z,1007.97
2018-11-13T11:19:55.274Z,1007.98
2018-11-13T11:20:55.262Z,1008.02
2018-11-13T11:21:55.272Z,1007.94
2018-11-13T11:22:55.328Z,1008.12
2018-11-13T11:23:55.213Z,1008.10
2018-11-13T11:24:55.203Z,1008.07
2018-11-13T11:25:55.174Z,1008.05
2018-11-13T11:26:55.168Z,1008.13
2018-11-13T11:27:55.219Z,1008.01
2018-11-13T11:28:55.154Z,1007.94
2018-11-13T11:29:55.121Z,1007.95
2018-11-13T11:30:55.108Z,1007.99
2018-11-13T11:31:55.085Z,1007.99
2018-11-13T11:32:55.112Z,1007.96
2018-11-13T11:33:55.090Z,1007.97
2018-11-13T11:34:55.041Z,1007.94
2018-11-13T11:35:55.039Z,1007.95
2018-11-13T11:36:55.013Z,1007.98
2018-11-13T11:37:55.003Z,1007.99
2018-11-13T11:38:55.237Z,1008.03
2018-11-13T11:39:54.983Z,1008.08
2018-11-13T11:40:54.969Z,1008.04
2018-11-13T11:41:54.939Z,1008.05
2018-11-13T11:42:54.938Z,1008.05
2018-11-13T11:43:54.909Z,1008.04
2018-11-13T11:44:54.913Z,1008.14
2018-11-13T11:45:54.883Z,1008.01
2018-11-13T11:46:54.878Z,1008.10
2018-11-13T11:47:54.856Z,1008.07
2018-11-13T11:48:54.829Z,1008.04
2018-11-13T11:49:54.853Z,1008.00
2018-11-13T11:50:54.851Z,1008.06
2018-11-13T11:51:54.796Z,1008.08
2018-11-13T11:52:54.788Z,1008.05
2018-11-13T11:53:54.821Z,1008.03
2018-11-13T11:54:54.784Z,1008.04
2018-11-13T11:55:54.766Z,1008.07
2018-11-13T11:56:54.716Z,1008.06
2018-11-13T11:57:54.716Z,1008.10
2018-11-13T11:58:54.687Z,1008.06
2018-11-13T11:59:54.678Z,1008.06
2018-11-13T12:00:54.688Z,1008.10
2018-11-13T12:01:54.649Z,1008.17
2018-11-13T12:02:54.657Z,1008.08
2018-11-13T12:03:54.606Z,1008.17
2018-11-13T12:04:54.598Z,1008.13